Time;durP1;ratioP1;P1;durP2;ratioP2;P2;SDS_P1;SDS_P2;PMS_P1;PMS_P2;Temp;Humidity;BMP_temperature;BMP_pressure;BME280_temperature;BME280_humidity;BME280_pressure;Samples;Min_cycle;Max_cycle;Signal;HPM_P1;HPM_P2
2021/03/27 04:57:04;;;;;;;102.57;39.55;;;;;;;;;;5833836;22;20053;-73
2021/03/27 04:59:38;;;;;;;105.90;40.22;;;;;;;;;;4985735;28;20053;-75
2021/03/27 05:02:11;;;;;;;98.15;40.22;;;;;;;;;;5000816;28;20027;-74
2021/03/27 05:04:56;;;;;;;103.47;40.88;;;;;;;;;;4982413;28;20065;-73
2021/03/27 05:07:28;;;;;;;103.97;38.35;;;;;;;;;;5000516;28;20081;-73
2021/03/27 05:10:13;;;;;;;98.40;39.15;;;;;;;;;;4999911;28;20070;-73
2021/03/27 05:12:59;;;;;;;103.00;40.90;;;;;;;;;;4999456;28;20044;-73
2021/03/27 05:15:25;;;;;;;103.30;41.67;;;;;;;;;;5000608;28;20030;-74
2021/03/27 05:18:06;;;;;;;96.03;40.00;;;;;;;;;;5003016;28;20030;-73
2021/03/27 05:20:34;;;;;;;101.05;40.65;;;;;;;;;;5003871;28;20193;-73
2021/03/27 05:23:08;;;;;;;94.95;38.67;;;;;;;;;;5001828;28;20038;-73
2021/03/27 05:25:46;;;;;;;96.55;40.38;;;;;;;;;;5001044;28;20022;-73
2021/03/27 05:28:15;;;;;;;103.22;41.03;;;;;;;;;;5000761;28;20026;-73
2021/03/27 05:30:44;;;;;;;94.78;39.50;;;;;;;;;;4985611;28;20026;-73
2021/03/27 05:33:22;;;;;;;101.70;40.65;;;;;;;;;;5004867;28;20030;-73
2021/03/27 05:35:51;;;;;;;83.80;38.80;;;;;;;;;;5003777;28;20030;-73
2021/03/27 05:38:17;;;;;;;99.55;41.05;;;;;;;;;;5003222;28;20033;-73
2021/03/27 05:40:58;;;;;;;93.25;40.33;;;;;;;;;;5003379;28;20026;-73
2021/03/27 05:43:37;;;;;;;94.30;39.03;;;;;;;;;;4985569;28;20038;-74
2021/03/27 05:46:12;;;;;;;87.03;37.47;;;;;;;;;;5003136;28;20018;-73
2021/03/27 05:48:38;;;;;;;95.00;39.42;;;;;;;;;;5003627;28;20036;-73
2021/03/27 05:51:07;;;;;;;98.47;40.45;;;;;;;;;;5004993;28;20026;-73
2021/03/27 05:54:06;;;;;;;98.55;39.92;;;;;;;;;;5004235;28;20057;-73
2021/03/27 05:56:31;;;;;;;93.18;39.88;;;;;;;;;;4960825;28;20038;-73
2021/03/27 05:58:57;;;;;;;97.63;41.00;;;;;;;;;;5004750;28;20532;-73
2021/03/27 06:01:34;;;;;;;95.40;40.50;;;;;;;;;;5006478;28;20117;-74
2021/03/27 06:04:07;;;;;;;93.93;40.03;;;;;;;;;;5005518;28;20398;-74
2021/03/27 06:06:52;;;;;;;91.30;41.13;;;;;;;;;;4985886;28;20026;-74
2021/03/27 06:09:43;;;;;;;106.88;47.60;;;;;;;;;;4986934;28;20479;-73
2021/03/27 06:12:15;;;;;;;90.43;37.63;;;;;;;;;;4984109;28;20578;-74
2021/03/27 06:15:00;;;;;;;85.45;37.13;;;;;;;;;;4985177;28;20054;-73
2021/03/27 06:17:45;;;;;;;85.78;38.08;;;;;;;;;;5003492;28;20041;-73
2021/03/27 06:20:11;;;;;;;79.95;37.13;;;;;;;;;;4986321;28;20061;-74
2021/03/27 06:22:56;;;;;;;87.05;37.50;;;;;;;;;;5002713;28;20022;-75
2021/03/27 06:25:25;;;;;;;79.72;35.50;;;;;;;;;;4995778;28;20386;-75
2021/03/27 06:27:53;;;;;;;76.88;35.60;;;;;;;;;;4995412;28;20419;-75
2021/03/27 06:30:24;;;;;;;76.63;35.03;;;;;;;;;;4978065;28;20046;-75
2021/03/27 06:33:09;;;;;;;75.50;34.70;;;;;;;;;;4995451;28;20026;-74
2021/03/27 06:35:55;;;;;;;68.57;31.42;;;;;;;;;;4995455;28;20022;-74
2021/03/27 06:38:40;;;;;;;67.75;32.70;;;;;;;;;;4994839;28;20109;-74
2021/03/27 06:41:24;;;;;;;65.22;32.22;;;;;;;;;;4982885;28;20479;-72
2021/03/27 06:43:53;;;;;;;60.03;30.35;;;;;;;;;;5002407;28;20482;-74
2021/03/27 06:46:23;;;;;;;64.03;29.10;;;;;;;;;;5002385;28;20060;-73
2021/03/27 06:48:49;;;;;;;77.18;33.50;;;;;;;;;;5002345;28;20058;-71
2021/03/27 06:51:18;;;;;;;67.68;31.67;;;;;;;;;;5003888;28;20082;-73
2021/03/27 06:54:00;;;;;;;69.65;31.52;;;;;;;;;;4987660;28;20084;-74
2021/03/27 06:56:32;;;;;;;62.25;31.40;;;;;;;;;;4986603;28;20026;-72
2021/03/27 06:59:12;;;;;;;66.43;32.72;;;;;;;;;;4997195;28;20050;-72
2021/03/27 07:01:56;;;;;;;60.17;29.60;;;;;;;;;;4977826;28;20053;-74
2021/03/27 07:04:28;;;;;;;61.95;31.25;;;;;;;;;;4976933;28;20050;-73
2021/03/27 07:30:26;;;;;;;62.38;32.40;;;;;;;;;;5087763;23;19945;-68
2021/03/27 07:32:59;;;;;;;68.50;34.22;;;;;;;;;;4994334;28;20038;-68
2021/03/27 07:35:38;;;;;;;62.17;32.42;;;;;;;;;;4992821;28;20378;-69
2021/03/27 07:38:22;;;;;;;66.65;34.13;;;;;;;;;;4990372;28;20030;-67
2021/03/27 07:41:09;;;;;;;69.43;35.53;;;;;;;;;;4991037;28;20027;-69
2021/03/27 07:43:54;;;;;;;63.72;31.38;;;;;;;;;;4942725;28;20042;-68
2021/03/27 07:46:30;;;;;;;68.72;35.70;;;;;;;;;;4990690;28;20022;-69
2021/03/27 07:49:14;;;;;;;64.65;32.83;;;;;;;;;;4993698;28;20538;-66
2021/03/27 07:51:43;;;;;;;69.82;35.25;;;;;;;;;;4976255;28;20034;-68
2021/03/27 07:54:09;;;;;;;62.28;32.22;;;;;;;;;;4993854;28;20034;-68
2021/03/27 07:56:38;;;;;;;64.28;34.25;;;;;;;;;;4993572;28;20037;-66
2021/03/27 07:59:23;;;;;;;73.28;36.45;;;;;;;;;;4993573;28;20110;-66
2021/03/27 08:50:36;;;;;;;59.08;31.00;;;;;;;;;;5700277;23;20057;-76
2021/03/27 08:53:16;;;;;;;57.60;31.17;;;;;;;;;;5023653;28;20053;-76
2021/03/27 08:56:08;;;;;;;57.47;32.08;;;;;;;;;;5019805;28;20113;-77
2021/03/27 08:58:49;;;;;;;57.20;30.45;;;;;;;;;;5023506;28;20049;-76
2021/03/27 09:01:34;;;;;;;54.25;29.58;;;;;;;;;;5019630;28;20486;-77
2021/03/27 09:04:20;;;;;;;58.70;28.73;;;;;;;;;;5025592;28;20143;-77
2021/03/27 09:06:55;;;;;;;55.65;30.23;;;;;;;;;;5022159;28;20052;-77
2021/03/27 09:09:21;;;;;;;51.15;28.35;;;;;;;;;;5020603;28;20033;-74
2021/03/27 09:12:04;;;;;;;54.28;29.73;;;;;;;;;;5015334;28;20030;-72
2021/03/27 09:14:48;;;;;;;56.60;31.90;;;;;;;;;;5016995;28;20415;-75
2021/03/27 09:17:35;;;;;;;52.25;29.60;;;;;;;;;;5016448;28;20053;-75
2021/03/27 09:20:07;;;;;;;61.83;32.80;;;;;;;;;;5015617;28;20033;-73
2021/03/27 09:22:59;;;;;;;102.82;50.58;;;;;;;;;;5016464;28;20030;-73
2021/03/27 09:25:48;;;;;;;56.55;29.15;;;;;;;;;;5016161;28;20026;-78
2021/03/27 09:28:17;;;;;;;51.17;29.08;;;;;;;;;;5015587;28;20049;-74
2021/03/27 09:31:01;;;;;;;49.25;28.77;;;;;;;;;;5016249;28;20432;-75
2021/03/27 09:33:32;;;;;;;54.40;29.83;;;;;;;;;;5016151;28;20040;-76
2021/03/27 09:35:58;;;;;;;;;;;;;;;;;;5016519;28;20041;-77
2021/03/27 09:38:30;;;;;;;50.22;28.17;;;;;;;;;;5016111;28;19906;-76
2021/03/27 09:41:15;;;;;;;51.10;28.17;;;;;;;;;;5019552;28;20034;-77
2021/03/27 09:43:44;;;;;;;48.65;27.85;;;;;;;;;;5016097;28;20022;-77
2021/03/27 09:46:10;;;;;;;38.47;23.02;;;;;;;;;;5014426;28;20143;-78
2021/03/27 09:48:51;;;;;;;42.30;20.40;;;;;;;;;;5015641;28;20069;-76
2021/03/27 09:51:29;;;;;;;34.75;17.77;;;;;;;;;;5028170;28;20057;-74
2021/03/27 09:54:09;;;;;;;28.25;15.88;;;;;;;;;;5035290;28;20456;-72
2021/03/27 09:56:47;;;;;;;42.30;24.38;;;;;;;;;;5035533;28;20571;-75
2021/03/27 09:59:17;;;;;;;35.53;20.25;;;;;;;;;;5034190;28;20033;-72
2021/03/27 10:01:46;;;;;;;48.90;22.83;;;;;;;;;;5028549;28;20121;-75
2021/03/27 10:04:12;;;;;;;46.45;26.10;;;;;;;;;;5027850;28;20034;-76
2021/03/27 10:06:38;;;;;;;35.30;18.80;;;;;;;;;;5025369;28;20034;-74
2021/03/27 10:09:21;;;;;;;30.67;16.30;;;;;;;;;;5035287;28;20033;-75
2021/03/27 10:11:56;;;;;;;34.53;16.75;;;;;;;;;;5035292;28;20033;-74
2021/03/27 10:14:45;;;;;;;32.40;17.10;;;;;;;;;;5033777;28;20037;-75
2021/03/27 12:12:53;;;;;;;18.95;11.23;;;;;;;;;;6002675;23;21049;-72
2021/03/27 12:15:25;;;;;;;21.00;11.15;;;;;;;;;;4943836;28;20563;-72
2021/03/27 12:17:51;;;;;;;21.80;12.13;;;;;;;;;;4935779;29;20126;-72
2021/03/27 12:20:23;;;;;;;20.50;11.25;;;;;;;;;;4940691;28;20050;-71
2021/03/27 12:22:55;;;;;;;21.67;12.38;;;;;;;;;;4955015;28;20046;-69
2021/03/27 12:25:30;;;;;;;21.55;11.25;;;;;;;;;;4954625;28;20031;-71
2021/03/27 12:28:25;;;;;;;21.95;11.98;;;;;;;;;;4954745;28;20058;-70
2021/03/27 12:30:56;;;;;;;26.58;13.57;;;;;;;;;;4942269;28;20400;-71
2021/03/27 12:33:31;;;;;;;23.98;13.20;;;;;;;;;;4937357;28;20038;-71
2021/03/27 12:35:57;;;;;;;22.55;12.35;;;;;;;;;;4937446;28;20395;-72
2021/03/27 12:38:29;;;;;;;21.98;12.70;;;;;;;;;;4936664;29;20035;-71
2021/03/27 12:40:58;;;;;;;24.52;12.95;;;;;;;;;;4937009;29;20031;-71
2021/03/27 12:43:26;;;;;;;22.85;11.15;;;;;;;;;;4954587;28;20475;-71
2021/03/27 12:46:21;;;;;;;19.63;10.73;;;;;;;;;;4954352;28;20042;-72
2021/03/27 12:48:47;;;;;;;97.18;44.35;;;;;;;;;;4902738;28;20068;-72
2021/03/27 12:51:32;;;;;;;83.80;28.67;;;;;;;;;;4954487;28;20416;-71
2021/03/27 12:54:06;;;;;;;31.08;14.80;;;;;;;;;;4937167;28;20049;-69
2021/03/27 12:56:46;;;;;;;27.88;12.63;;;;;;;;;;4951970;28;20062;-70
2021/03/27 12:59:24;;;;;;;25.45;12.73;;;;;;;;;;4937242;28;20456;-72
2021/03/27 13:01:54;;;;;;;21.13;10.70;;;;;;;;;;4936042;28;20036;-70
2021/03/27 13:04:39;;;;;;;23.38;12.63;;;;;;;;;;4952633;28;20091;-71
2021/03/27 13:07:24;;;;;;;18.20;9.50;;;;;;;;;;4951722;28;20053;-69
2021/03/27 13:10:09;;;;;;;20.08;10.25;;;;;;;;;;4945826;28;20027;-70
2021/03/27 13:12:51;;;;;;;23.55;13.18;;;;;;;;;;4950317;28;20034;-70
2021/03/27 13:15:24;;;;;;;22.20;12.52;;;;;;;;;;4949936;28;20043;-71
2021/03/27 13:18:09;;;;;;;21.55;12.18;;;;;;;;;;4952397;28;20089;-71
2021/03/27 13:20:41;;;;;;;26.13;12.50;;;;;;;;;;4953558;28;20027;-72
2021/03/27 13:23:10;;;;;;;16.98;9.32;;;;;;;;;;4954218;28;20611;-71
2021/03/27 13:25:41;;;;;;;20.17;10.80;;;;;;;;;;4953815;28;20027;-70
2021/03/27 13:28:13;;;;;;;25.60;12.10;;;;;;;;;;4953863;28;20439;-73
2021/03/27 13:30:49;;;;;;;18.25;9.63;;;;;;;;;;4954278;28;20036;-73
2021/03/27 13:33:21;;;;;;;18.98;10.68;;;;;;;;;;4954232;28;20043;-73
2021/03/27 13:35:50;;;;;;;16.35;7.75;;;;;;;;;;4954136;28;20043;-72
2021/03/27 13:38:23;;;;;;;20.58;9.80;;;;;;;;;;4954185;28;20502;-72
2021/03/27 13:40:51;;;;;;;17.83;10.20;;;;;;;;;;4954051;28;20039;-73
2021/03/27 13:43:37;;;;;;;18.73;10.60;;;;;;;;;;4954183;28;21131;-73
2021/03/27 13:46:11;;;;;;;17.13;10.32;;;;;;;;;;4936376;28;20126;-73
2021/03/27 13:48:46;;;;;;;16.85;9.65;;;;;;;;;;4954137;28;20042;-73
2021/03/27 13:51:15;;;;;;;16.13;10.23;;;;;;;;;;4956394;28;20038;-71
2021/03/27 13:53:44;;;;;;;18.63;11.02;;;;;;;;;;4940134;28;20039;-72
2021/03/27 13:56:13;;;;;;;26.88;15.02;;;;;;;;;;4939904;28;20248;-72
2021/03/27 13:59:05;;;;;;;16.50;9.85;;;;;;;;;;4957437;28;20054;-72
2021/03/27 14:01:57;;;;;;;15.48;8.93;;;;;;;;;;4940382;28;20460;-73
2021/03/27 14:04:28;;;;;;;16.65;9.75;;;;;;;;;;4932088;28;20126;-75
2021/03/27 14:07:04;;;;;;;33.42;18.17;;;;;;;;;;4940456;28;20031;-71
2021/03/27 14:09:38;;;;;;;18.65;10.57;;;;;;;;;;4957325;28;20019;-72
2021/03/27 14:12:07;;;;;;;19.65;11.65;;;;;;;;;;4939918;28;20411;-71
2021/03/27 14:14:35;;;;;;;25.83;13.02;;;;;;;;;;4956721;28;20051;-71
2021/03/27 14:17:04;;;;;;;31.58;18.52;;;;;;;;;;4957007;28;20031;-71
2021/03/27 14:19:47;;;;;;;39.20;17.27;;;;;;;;;;4956941;28;20020;-71
2021/03/27 14:22:19;;;;;;;30.13;15.48;;;;;;;;;;4956714;28;20110;-72
2021/03/27 14:24:50;;;;;;;26.25;13.82;;;;;;;;;;4956762;28;20038;-71
2021/03/27 14:27:34;;;;;;;44.22;21.23;;;;;;;;;;4939717;28;20031;-74
2021/03/27 14:30:15;;;;;;;42.38;22.40;;;;;;;;;;4939105;28;20043;-71
2021/03/27 14:33:04;;;;;;;20.88;12.45;;;;;;;;;;4956657;28;20023;-70
2021/03/27 14:35:49;;;;;;;30.38;15.88;;;;;;;;;;4956469;28;20043;-72
2021/03/27 14:38:23;;;;;;;22.17;12.07;;;;;;;;;;4938955;28;20110;-74
2021/03/27 14:40:52;;;;;;;22.15;12.75;;;;;;;;;;4939620;28;20123;-73
2021/03/27 14:43:31;;;;;;;25.05;14.85;;;;;;;;;;4939133;28;20073;-70
2021/03/27 14:46:11;;;;;;;35.70;18.42;;;;;;;;;;4939132;28;20066;-71
2021/03/27 14:48:39;;;;;;;29.23;18.05;;;;;;;;;;4956504;28;20024;-70
2021/03/27 14:51:11;;;;;;;26.80;13.98;;;;;;;;;;4956253;28;20038;-71
2021/03/27 14:53:46;;;;;;;20.65;11.70;;;;;;;;;;4956275;28;20142;-72
2021/03/27 14:56:19;;;;;;;27.40;15.57;;;;;;;;;;4938517;28;20094;-72
2021/03/27 14:58:45;;;;;;;33.53;20.63;;;;;;;;;;4939035;28;20043;-74
2021/03/27 15:01:18;;;;;;;36.92;22.40;;;;;;;;;;4938687;28;20107;-72
2021/03/27 15:03:49;;;;;;;37.28;21.13;;;;;;;;;;4938817;28;20481;-70
2021/03/27 15:06:16;;;;;;;40.70;22.27;;;;;;;;;;4955735;28;20032;-73
2021/03/27 15:08:45;;;;;;;30.55;18.13;;;;;;;;;;4938968;28;20039;-73
2021/03/27 15:11:29;;;;;;;34.08;18.85;;;;;;;;;;4955931;28;20027;-72
2021/03/27 15:14:04;;;;;;;33.85;19.55;;;;;;;;;;4955670;28;20503;-72
2021/03/27 15:16:33;;;;;;;334.80;300.08;;;;;;;;;;4956138;28;20038;-73
2021/03/27 15:19:11;;;;;;;26.10;13.68;;;;;;;;;;4938949;28;20078;-72
2021/03/27 15:21:56;;;;;;;29.25;15.65;;;;;;;;;;4955734;28;20034;-72
2021/03/27 15:24:33;;;;;;;28.67;15.15;;;;;;;;;;4955711;28;20035;-71
2021/03/27 15:27:18;;;;;;;27.17;13.60;;;;;;;;;;4955790;28;20019;-72
2021/03/27 15:29:57;;;;;;;46.53;21.50;;;;;;;;;;4955779;28;20027;-71
2021/03/27 15:32:55;;;;;;;44.15;20.98;;;;;;;;;;4955755;28;20550;-70
2021/03/27 15:35:43;;;;;;;28.25;14.85;;;;;;;;;;4923413;28;20134;-71
2021/03/27 15:38:35;;;;;;;28.17;19.42;;;;;;;;;;4955399;28;20091;-71
2021/03/27 15:41:06;;;;;;;31.25;17.98;;;;;;;;;;4953649;28;20098;-72
2021/03/27 15:43:41;;;;;;;25.08;14.57;;;;;;;;;;4949335;28;20047;-71
2021/03/27 15:46:28;;;;;;;25.60;15.82;;;;;;;;;;4947326;28;20481;-71
2021/03/27 15:49:06;;;;;;;27.58;18.08;;;;;;;;;;4936251;29;20036;-71
2021/03/27 15:51:35;;;;;;;38.50;22.23;;;;;;;;;;4936097;29;20107;-71
2021/03/27 15:54:01;;;;;;;24.38;13.35;;;;;;;;;;4940703;28;20519;-71
2021/03/27 15:56:44;;;;;;;24.20;15.75;;;;;;;;;;4954526;28;20062;-72
2021/03/27 15:59:19;;;;;;;47.67;29.17;;;;;;;;;;4953369;28;20035;-72
2021/03/27 16:01:52;;;;;;;28.20;17.67;;;;;;;;;;4953219;28;20039;-74
2021/03/27 16:04:37;;;;;;;29.35;19.35;;;;;;;;;;4954715;28;20039;-73
2021/03/27 16:07:08;;;;;;;25.08;15.68;;;;;;;;;;4953382;28;20443;-74
2021/03/27 16:09:34;;;;;;;;;;;;;;;;;;4955180;28;20035;-73
2021/03/27 16:12:02;;;;;;;35.72;25.00;;;;;;;;;;4954488;28;19910;-73
2021/03/27 16:14:47;;;;;;;27.52;16.35;;;;;;;;;;4954222;28;20047;-73
2021/03/27 16:17:15;;;;;;;27.73;16.42;;;;;;;;;;4954377;28;20110;-73
2021/03/27 16:19:44;;;;;;;26.75;14.98;;;;;;;;;;4954413;28;20035;-73
2021/03/27 16:22:32;;;;;;;27.88;15.73;;;;;;;;;;4954368;28;20062;-73
2021/03/27 16:24:59;;;;;;;28.52;16.05;;;;;;;;;;4954172;28;20066;-75
2021/03/27 16:27:34;;;;;;;28.60;15.27;;;;;;;;;;4953264;28;20042;-73
2021/03/27 16:30:07;;;;;;;26.40;14.55;;;;;;;;;;4954114;28;20027;-73
2021/03/27 16:32:33;;;;;;;29.10;13.52;;;;;;;;;;4954007;28;20034;-74
2021/03/27 16:35:39;;;;;;;28.55;17.70;;;;;;;;;;4954015;28;20062;-75
2021/03/27 16:38:07;;;;;;;36.45;27.98;;;;;;;;;;4895240;29;20040;-73
2021/03/27 16:40:37;;;;;;;27.08;16.45;;;;;;;;;;4913722;29;20056;-72
2021/03/27 16:43:07;;;;;;;313.83;154.93;;;;;;;;;;4934646;28;20043;-72
2021/03/27 16:45:33;;;;;;;163.48;78.65;;;;;;;;;;4954310;28;20127;-72
2021/03/27 16:48:17;;;;;;;98.00;50.80;;;;;;;;;;4954358;28;20375;-72
2021/03/27 16:50:43;;;;;;;243.23;121.32;;;;;;;;;;4954374;28;20133;-72
2021/03/27 16:53:09;;;;;;;58.90;34.45;;;;;;;;;;4954231;28;20038;-71
2021/03/27 16:56:02;;;;;;;33.05;17.45;;;;;;;;;;4952712;28;20488;-73
2021/03/27 16:58:32;;;;;;;32.58;18.55;;;;;;;;;;4938730;28;20035;-72
2021/03/27 17:01:08;;;;;;;58.88;33.90;;;;;;;;;;4953739;28;20078;-73
2021/03/27 17:03:41;;;;;;;34.65;18.63;;;;;;;;;;4953868;28;20388;-72
2021/03/27 17:06:14;;;;;;;51.17;26.63;;;;;;;;;;4953918;28;20114;-72
2021/03/27 17:08:55;;;;;;;83.18;49.72;;;;;;;;;;4953648;28;20072;-72
2021/03/27 17:11:24;;;;;;;76.35;43.45;;;;;;;;;;4954006;28;20229;-72
2021/03/27 17:13:52;;;;;;;98.38;54.42;;;;;;;;;;4953465;28;20400;-72
2021/03/27 17:16:21;;;;;;;40.25;20.92;;;;;;;;;;4953668;28;20035;-74
2021/03/27 17:18:56;;;;;;;137.90;84.53;;;;;;;;;;4952516;28;20031;-73
2021/03/27 17:21:29;;;;;;;186.40;108.38;;;;;;;;;;4953905;28;20063;-74
2021/03/27 17:24:04;;;;;;;69.78;38.47;;;;;;;;;;4953693;28;20035;-75
2021/03/27 17:26:49;;;;;;;158.20;99.72;;;;;;;;;;4956213;28;20033;-73
2021/03/27 17:29:21;;;;;;;47.45;33.08;;;;;;;;;;4953306;28;20031;-76
2021/03/27 17:32:04;;;;;;;31.83;16.60;;;;;;;;;;4947410;28;20027;-73
2021/03/27 17:34:33;;;;;;;29.23;17.23;;;;;;;;;;4956748;28;20564;-74
2021/03/27 17:37:13;;;;;;;27.05;14.93;;;;;;;;;;4939840;28;20042;-73
2021/03/27 17:39:46;;;;;;;27.63;15.15;;;;;;;;;;4939253;28;20043;-73
2021/03/27 17:42:18;;;;;;;27.42;13.65;;;;;;;;;;4957321;28;20082;-74
2021/03/27 17:45:07;;;;;;;28.20;15.45;;;;;;;;;;4957037;28;20036;-76
2021/03/27 17:47:42;;;;;;;32.28;16.05;;;;;;;;;;4956902;28;20043;-73
2021/03/27 17:50:27;;;;;;;39.35;19.80;;;;;;;;;;4956908;28;20039;-74
2021/03/27 17:53:07;;;;;;;33.20;16.10;;;;;;;;;;4939499;28;20032;-73
2021/03/27 17:55:37;;;;;;;30.83;17.58;;;;;;;;;;4939372;28;20065;-73
2021/03/27 17:58:16;;;;;;;33.20;18.13;;;;;;;;;;4939156;28;20039;-71
2021/03/27 18:00:58;;;;;;;75.00;46.33;;;;;;;;;;4939502;28;20023;-74
2021/03/27 18:03:27;;;;;;;34.15;16.10;;;;;;;;;;4954966;28;20502;-71
2021/03/27 18:05:59;;;;;;;32.45;18.33;;;;;;;;;;4954590;28;20075;-72
2021/03/27 18:08:30;;;;;;;29.60;16.98;;;;;;;;;;4956101;28;20086;-73
2021/03/27 18:11:07;;;;;;;32.38;16.00;;;;;;;;;;4956181;28;20114;-75
2021/03/27 18:13:45;;;;;;;29.85;14.85;;;;;;;;;;4950881;28;20065;-73
2021/03/27 18:16:17;;;;;;;36.03;19.83;;;;;;;;;;4919489;29;20027;-73
2021/03/27 18:18:49;;;;;;;39.83;21.00;;;;;;;;;;4918946;29;20031;-75
2021/03/27 18:21:37;;;;;;;36.05;16.02;;;;;;;;;;4920276;29;20102;-70
2021/03/27 18:24:16;;;;;;;37.30;18.55;;;;;;;;;;4937555;29;20036;-70
2021/03/27 18:26:53;;;;;;;35.73;14.93;;;;;;;;;;4937130;29;20032;-72
2021/03/27 18:29:25;;;;;;;33.67;15.77;;;;;;;;;;4920246;29;20047;-72
2021/03/27 18:32:05;;;;;;;43.60;19.88;;;;;;;;;;4920139;29;20027;-71
2021/03/27 18:35:02;;;;;;;25.35;14.32;;;;;;;;;;4936962;29;20039;-73
2021/03/27 18:37:44;;;;;;;37.10;19.70;;;;;;;;;;4918125;29;20074;-74
2021/03/27 18:40:28;;;;;;;30.08;14.52;;;;;;;;;;4920074;29;20473;-73
2021/03/27 18:42:56;;;;;;;39.88;19.27;;;;;;;;;;4934428;29;20107;-71
2021/03/27 18:45:36;;;;;;;28.40;15.95;;;;;;;;;;4954606;29;20027;-74
2021/03/27 18:48:09;;;;;;;44.93;26.03;;;;;;;;;;4936620;29;20035;-73
2021/03/27 18:50:42;;;;;;;46.63;24.75;;;;;;;;;;4936880;29;20343;-72
2021/03/27 18:53:20;;;;;;;67.10;41.08;;;;;;;;;;4936551;29;20126;-72
2021/03/27 18:55:48;;;;;;;40.03;21.08;;;;;;;;;;4936758;29;20035;-72
2021/03/27 18:58:15;;;;;;;26.42;13.75;;;;;;;;;;4936769;29;20033;-72
2021/03/27 19:00:47;;;;;;;37.97;18.15;;;;;;;;;;4943029;29;20078;-72
2021/03/27 19:03:13;;;;;;;30.98;17.02;;;;;;;;;;4936332;29;20038;-72
2021/03/27 19:05:41;;;;;;;41.20;24.33;;;;;;;;;;4941146;29;20385;-70
2021/03/27 19:08:07;;;;;;;34.13;18.23;;;;;;;;;;4936559;29;20527;-70
2021/03/27 19:10:35;;;;;;;26.35;13.65;;;;;;;;;;4936406;29;20072;-71
2021/03/27 19:13:20;;;;;;;91.65;40.13;;;;;;;;;;4936344;29;20043;-72
2021/03/27 19:16:00;;;;;;;45.25;20.52;;;;;;;;;;4935414;29;20087;-70
2021/03/27 19:18:28;;;;;;;36.70;17.33;;;;;;;;;;4935377;29;20095;-72
2021/03/27 19:21:10;;;;;;;33.08;15.18;;;;;;;;;;4935037;29;20492;-71
2021/03/27 19:23:47;;;;;;;39.70;17.70;;;;;;;;;;4933791;29;20815;-74
2021/03/27 19:26:15;;;;;;;27.35;12.82;;;;;;;;;;4930355;29;20031;-73
2021/03/27 19:29:08;;;;;;;57.03;33.13;;;;;;;;;;4916506;29;20082;-74
2021/03/27 19:31:43;;;;;;;62.63;27.10;;;;;;;;;;4935064;29;20020;-73
2021/03/27 19:34:22;;;;;;;83.95;34.47;;;;;;;;;;4932871;29;20062;-74
2021/03/27 19:36:48;;;;;;;61.17;28.15;;;;;;;;;;4917620;29;20055;-75
2021/03/27 19:39:27;;;;;;;52.80;23.13;;;;;;;;;;4918416;29;20078;-73
2021/03/27 19:41:56;;;;;;;34.28;17.23;;;;;;;;;;4933520;29;20396;-74
2021/03/27 19:44:25;;;;;;;33.30;16.75;;;;;;;;;;4935102;29;20031;-72
2021/03/27 19:46:52;;;;;;;31.92;16.98;;;;;;;;;;4946525;29;20027;-76
2021/03/27 19:49:56;;;;;;;59.33;27.40;;;;;;;;;;4919490;29;20451;-74
2021/03/27 19:55:10;;;;;;;80.75;41.17;;;;;;;;;;5794548;23;20055;-71
2021/03/27 19:57:55;;;;;;;56.72;27.77;;;;;;;;;;4993260;28;20101;-70
2021/03/27 20:00:27;;;;;;;27.27;14.70;;;;;;;;;;4992721;28;20466;-70
2021/03/27 20:03:02;;;;;;;25.92;13.48;;;;;;;;;;4991690;28;20039;-71
2021/03/27 20:05:33;;;;;;;17.08;10.77;;;;;;;;;;4989823;28;20025;-69
2021/03/27 20:08:02;;;;;;;26.00;14.82;;;;;;;;;;4988794;28;20037;-69
2021/03/27 20:10:35;;;;;;;15.85;9.60;;;;;;;;;;4972717;28;20026;-70
2021/03/27 20:13:05;;;;;;;17.63;8.70;;;;;;;;;;4989765;28;20385;-70
2021/03/27 20:15:38;;;;;;;16.45;9.73;;;;;;;;;;4971662;28;20375;-72
2021/03/27 20:18:11;;;;;;;14.85;9.23;;;;;;;;;;4985802;28;20031;-71
2021/03/27 20:20:40;;;;;;;17.35;8.43;;;;;;;;;;4990419;28;20098;-71
2021/03/27 20:23:18;;;;;;;10.57;6.28;;;;;;;;;;4990512;28;20124;-69
2021/03/27 20:25:51;;;;;;;10.95;5.72;;;;;;;;;;4990997;28;20106;-69
2021/03/27 20:28:20;;;;;;;145.43;57.50;;;;;;;;;;4989439;28;20054;-68
2021/03/27 20:30:54;;;;;;;151.05;54.13;;;;;;;;;;4974323;28;20037;-68
2021/03/27 20:33:29;;;;;;;161.75;59.08;;;;;;;;;;4989528;28;20109;-69
2021/03/27 20:36:18;;;;;;;97.00;36.83;;;;;;;;;;4991682;28;20043;-68
2021/03/27 20:39:03;;;;;;;40.80;15.60;;;;;;;;;;4990930;28;20038;-71
2021/03/27 20:41:48;;;;;;;32.70;12.52;;;;;;;;;;4990679;28;20023;-69
2021/03/27 20:44:14;;;;;;;24.20;10.43;;;;;;;;;;4991388;28;20081;-69
2021/03/27 20:46:43;;;;;;;96.55;33.58;;;;;;;;;;4991455;28;20030;-70
2021/03/27 20:49:20;;;;;;;42.58;16.52;;;;;;;;;;4991448;28;20418;-70
2021/03/27 20:52:00;;;;;;;19.83;8.30;;;;;;;;;;4990223;28;20432;-69
